VISP weather

Sarsawa Air Force Station
Uttar Pradesh, India

Public forecast

Using degrees Celsius for public forecast. Weather courtesy of forecast.io.

Closest aviation weather report (METAR) to Sarsawa Air Force Station

Report is more than 6 hours old.

Closest report is Dehradun Airport, 40.9 nm (75.8 km) ENE. Retrieved 2019/12/26 13:00 UTC (2 months ago):

VIDN 261300Z 23004KT 1800 BR FEW030 BKN060 08/08 Q1017

Aviation forecast (TAF) for Sarsawa Air Force Station

Forecast is more than 12 hours old.

Retrieved 2016/07/10 06:00 UTC (4 years ago):

TAF VISP 100500Z 1006/1015 22005KT 4000 BR SCT025 BKN100 BECMG 1008/1010 25006KT 2500 BR TEMPO 1009/1012 -TSRA FEW035CB OVC080